Time;durP1;ratioP1;P1;durP2;ratioP2;P2;SDS_P1;SDS_P2;PMS_P1;PMS_P2;Temp;Humidity;BMP_temperature;BMP_pressure;BME280_temperature;BME280_humidity;BME280_pressure;Samples;Min_cycle;Max_cycle;Signal;HPM_P1;HPM_P2
2022/10/29 00:02:17;;;;;;;;;;;;;;;16.21;72.64;101627.44;5319703;32;35465;-70
2022/10/29 00:05:19;;;;;;;;;;;;;;;16.09;73.13;101644.75;5308663;32;35559;-66
2022/10/29 00:08:20;;;;;;;;;;;;;;;15.68;75.69;101647.31;5302481;32;34910;-71
2022/10/29 00:11:22;;;;;;;;;;;;;;;15.98;74.52;101641.69;5322715;32;35536;-70
2022/10/29 00:14:24;;;;;;;;;;;;;;;16.07;72.77;101643.94;5301681;32;35504;-67
2022/10/29 00:17:26;;;;;;;;;;;;;;;15.74;73.73;101646.22;5321851;32;34514;-70
2022/10/29 00:20:28;;;;;;;;;;;;;;;15.85;73.93;101645.78;5306094;32;34142;-67
2022/10/29 00:23:30;;;;;;;;;;;;;;;15.53;74.98;101649.69;5318335;32;34076;-72
2022/10/29 00:26:32;;;;;;;;;;;;;;;15.37;74.61;101649.41;5284060;32;34383;-66
2022/10/29 00:29:34;;;;;;;;;;;;;;;14.59;78.58;101660.28;5301228;32;34109;-70
2022/10/29 00:32:36;;;;;;;;;;;;;;;15.51;75.58;101652.38;5322180;32;34962;-69
2022/10/29 00:35:37;;;;;;;;;;;;;;;14.86;77.55;101655.78;5288744;33;35373;-70
2022/10/29 00:38:39;;;;;;;;;;;;;;;15.47;75.68;101650.81;5318043;32;44515;-69
2022/10/29 00:41:41;;;;;;;;;;;;;;;15.59;74.61;101652.97;5304268;32;35221;-66
2022/10/29 00:44:43;;;;;;;;;;;;;;;15.23;76.00;101647.31;5318617;32;35404;-71
2022/10/29 00:47:45;;;;;;;;;;;;;;;14.97;76.71;101644.78;5306404;33;34743;-70
2022/10/29 00:50:47;;;;;;;;;;;;;;;15.33;75.08;101651.34;5302819;32;35009;-70
2022/10/29 00:53:51;;;;;;;;;;;;;;;15.20;75.81;101651.84;5321545;32;35229;-70
2022/10/29 00:56:54;;;;;;;;;;;;;;;15.71;73.73;101633.06;5302939;32;35154;-70
2022/10/29 00:59:56;;;;;;;;;;;;;;;15.64;74.02;101636.91;5319074;32;34850;-70
2022/10/29 01:02:58;;;;;;;;;;;;;;;15.67;73.65;101642.09;5304177;32;34212;-67
2022/10/29 01:06:00;;;;;;;;;;;;;;;15.01;76.17;101638.47;5319173;32;35159;-66
2022/10/29 01:09:02;;;;;;;;;;;;;;;14.27;80.67;101633.16;5305060;32;34904;-66
2022/10/29 01:12:10;;;;;;;;;;;;;;;15.51;75.82;101625.88;5303830;33;34515;-66
2022/10/29 01:15:14;;;;;;;;;;;;;;;14.43;78.60;101617.63;5321570;32;44527;-66
2022/10/29 01:18:16;;;;;;;;;;;;;;;14.94;75.44;101619.31;5303820;33;35314;-70
2022/10/29 01:21:24;;;;;;;;;;;;;;;14.50;78.88;101608.56;5320741;32;34760;-70
2022/10/29 01:24:26;;;;;;;;;;;;;;;14.79;78.16;101604.00;5305471;33;35362;-66
2022/10/29 01:27:48;;;;;;;;;;;;;;;14.47;79.09;101590.16;5288490;33;33745;-66
2022/10/29 01:31:09;;;;;;;;;;;;;;;15.17;76.19;101590.16;5313812;32;35279;-65
2022/10/29 01:34:29;;;;;;;;;;;;;;;15.92;72.58;101592.44;5300931;33;44330;-66
2022/10/29 01:37:33;;;;;;;;;;;;;;;14.67;77.26;101593.84;5315576;32;35252;-70
2022/10/29 01:40:37;;;;;;;;;;;;;;;16.06;71.70;101585.69;5306349;32;34323;-65
2022/10/29 01:43:46;;;;;;;;;;;;;;;16.09;70.96;101583.75;5305687;32;44529;-66
2022/10/29 01:46:50;;;;;;;;;;;;;;;15.57;73.94;101583.25;5331722;32;35413;-66
2022/10/29 01:49:53;;;;;;;;;;;;;;;14.66;77.05;101579.75;5301455;33;34889;-69
2022/10/29 01:52:55;;;;;;;;;;;;;;;16.13;71.39;101572.09;5317645;32;35400;-70
2022/10/29 01:55:56;;;;;;;;;;;;;;;15.96;71.71;101566.63;5303525;32;34829;-66
2022/10/29 01:58:58;;;;;;;;;;;;;;;15.36;74.18;101563.78;5316373;32;34337;-69
2022/10/29 02:02:00;;;;;;;;;;;;;;;14.75;78.81;101568.84;5304418;32;35383;-66
2022/10/29 02:05:10;;;;;;;;;;;;;;;15.27;77.48;101563.31;5302748;32;35704;-70
2022/10/29 02:08:20;;;;;;;;;;;;;;;14.89;78.26;101568.31;5320598;32;45502;-70
2022/10/29 02:11:26;;;;;;;;;;;;;;;14.92;77.89;101573.47;5307110;32;35459;-66
2022/10/29 02:14:32;;;;;;;;;;;;;;;15.62;75.37;101570.72;5320992;33;35378;-70
2022/10/29 02:17:34;;;;;;;;;;;;;;;15.18;77.44;101580.41;5292033;33;34105;-70
2022/10/29 02:20:40;;;;;;;;;;;;;;;15.03;77.92;101573.94;5296629;33;34827;-66
2022/10/29 02:23:42;;;;;;;;;;;;;;;15.70;75.88;101573.91;5317142;32;44952;-69
2022/10/29 02:26:44;;;;;;;;;;;;;;;16.04;72.23;101572.50;5280548;32;34920;-69
2022/10/29 02:29:45;;;;;;;;;;;;;;;15.86;73.02;101563.53;5321498;32;34711;-65
2022/10/29 02:32:47;;;;;;;;;;;;;;;15.75;73.97;101570.22;5305745;33;34924;-68
2022/10/29 02:35:49;;;;;;;;;;;;;;;15.52;74.42;101563.16;5319386;32;35133;-69
2022/10/29 02:38:51;;;;;;;;;;;;;;;14.88;78.39;101563.97;5306038;32;34917;-70
2022/10/29 02:41:53;;;;;;;;;;;;;;;15.49;76.53;101572.09;5310793;32;34468;-65
2022/10/29 02:44:55;;;;;;;;;;;;;;;15.74;74.54;101568.50;5318916;32;35537;-66
2022/10/29 02:47:57;;;;;;;;;;;;;;;15.85;72.44;101569.78;5305230;33;33857;-69
2022/10/29 02:50:59;;;;;;;;;;;;;;;15.10;75.35;101571.91;5322635;32;35584;-66
2022/10/29 02:54:01;;;;;;;;;;;;;;;14.65;79.53;101563.94;5306140;32;35265;-66
2022/10/29 02:57:02;;;;;;;;;;;;;;;13.87;83.13;101570.22;5320754;32;34575;-66
2022/10/29 03:00:05;;;;;;;;;;;;;;;14.67;80.55;101568.25;5306648;33;34688;-66
2022/10/29 03:03:06;;;;;;;;;;;;;;;14.52;81.21;101564.41;5305468;32;34370;-66
2022/10/29 03:06:15;;;;;;;;;;;;;;;15.68;74.33;101559.88;5321060;32;35640;-65
2022/10/29 03:09:17;;;;;;;;;;;;;;;15.66;74.06;101561.72;5303493;32;44616;-66
2022/10/29 03:12:18;;;;;;;;;;;;;;;14.41;79.28;101563.88;5320881;32;35559;-66
2022/10/29 03:15:20;;;;;;;;;;;;;;;14.59;81.29;101570.31;5307062;32;35658;-67
2022/10/29 03:18:22;;;;;;;;;;;;;;;14.87;79.53;101565.72;5318538;32;34954;-69
2022/10/29 03:21:24;;;;;;;;;;;;;;;14.95;79.25;101570.72;5307855;32;34826;-67
2022/10/29 03:24:26;;;;;;;;;;;;;;;15.80;73.23;101565.59;5303654;33;34768;-70
2022/10/29 03:27:27;;;;;;;;;;;;;;;14.92;77.73;101562.91;5296868;32;34574;-67
2022/10/29 03:30:29;;;;;;;;;;;;;;;14.76;77.94;101553.84;5306675;32;34323;-67
2022/10/29 03:33:31;;;;;;;;;;;;;;;14.21;81.21;101551.38;5319359;32;34244;-70
2022/10/29 03:36:33;;;;;;;;;;;;;;;15.64;74.63;101547.66;5302809;32;34316;-66
2022/10/29 03:39:35;;;;;;;;;;;;;;;14.78;77.85;101554.63;5318554;32;34182;-71
2022/10/29 03:42:37;;;;;;;;;;;;;;;15.60;73.95;101543.41;5306277;32;35179;-70
2022/10/29 03:45:39;;;;;;;;;;;;;;;15.62;73.67;101546.88;5291164;33;37132;-67
2022/10/29 03:48:41;;;;;;;;;;;;;;;14.85;77.71;101562.28;5306310;32;34408;-68
2022/10/29 03:51:42;;;;;;;;;;;;;;;14.85;77.37;101559.63;5304531;32;35762;-65
2022/10/29 03:54:44;;;;;;;;;;;;;;;14.93;75.17;101555.81;5321027;32;35059;-65
2022/10/29 03:57:46;;;;;;;;;;;;;;;15.23;75.06;101549.31;5307531;32;35406;-65
2022/10/29 04:00:55;;;;;;;;;;;;;;;15.64;72.76;101546.78;5320131;32;35343;-69
2022/10/29 04:03:56;;;;;;;;;;;;;;;14.80;77.46;101547.47;5307448;32;35165;-65
2022/10/29 04:06:58;;;;;;;;;;;;;;;15.74;71.65;101544.63;5305413;32;35561;-65
2022/10/29 04:10:00;;;;;;;;;;;;;;;15.12;73.87;101549.75;5320965;32;35377;-70
2022/10/29 04:13:02;;;;;;;;;;;;;;;14.76;76.71;101556.47;5305539;32;35134;-70
2022/10/29 04:16:04;;;;;;;;;;;;;;;15.03;75.18;101551.91;5320456;32;34963;-67
2022/10/29 04:19:06;;;;;;;;;;;;;;;14.73;76.19;101556.56;5305909;32;34108;-66
2022/10/29 04:22:07;;;;;;;;;;;;;;;14.86;76.26;101557.84;5317982;32;35542;-66
2022/10/29 04:25:29;;;;;;;;;;;;;;;15.43;73.62;101557.31;5300202;33;34874;-70
2022/10/29 04:28:51;;;;;;;;;;;;;;;15.57;72.17;101561.19;5299029;32;36468;-65
2022/10/29 04:31:53;;;;;;;;;;;;;;;14.93;76.13;101564.63;5319922;32;34889;-66
2022/10/29 04:34:55;;;;;;;;;;;;;;;15.39;73.62;101565.44;5304707;32;34774;-66
2022/10/29 04:37:56;;;;;;;;;;;;;;;15.36;73.25;101563.78;5315406;32;35403;-69
2022/10/29 04:40:59;;;;;;;;;;;;;;;14.17;79.19;101560.38;5307776;32;35075;-70
2022/10/29 04:44:01;;;;;;;;;;;;;;;15.17;74.13;101563.66;5304033;32;34398;-66
2022/10/29 04:47:02;;;;;;;;;;;;;;;14.87;75.27;101557.78;5320575;32;34710;-65
2022/10/29 04:50:04;;;;;;;;;;;;;;;14.59;75.98;101563.25;5305850;32;35622;-66
2022/10/29 04:53:07;;;;;;;;;;;;;;;14.74;77.52;101560.94;5319473;33;34242;-65
2022/10/29 04:56:09;;;;;;;;;;;;;;;14.69;76.66;101563.78;5317290;32;45479;-67
2022/10/29 04:59:11;;;;;;;;;;;;;;;14.67;77.55;101552.37;5318045;32;35314;-70
2022/10/29 05:02:12;;;;;;;;;;;;;;;15.11;76.10;101549.81;5306192;32;34792;-69
2022/10/29 05:05:15;;;;;;;;;;;;;;;15.31;73.50;101559.59;5303751;33;34602;-66
2022/10/29 05:08:16;;;;;;;;;;;;;;;15.07;74.48;101548.19;5319465;32;34381;-69
2022/10/29 05:11:18;;;;;;;;;;;;;;;15.23;74.15;101559.06;5304677;32;35599;-66
2022/10/29 05:14:20;;;;;;;;;;;;;;;14.86;75.73;101565.78;5319386;33;35419;-66
2022/10/29 05:17:22;;;;;;;;;;;;;;;14.74;77.05;101571.53;5307232;32;34726;-66
2022/10/29 05:20:24;;;;;;;;;;;;;;;14.70;76.83;101568.16;5318161;32;34810;-66
2022/10/29 05:23:26;;;;;;;;;;;;;;;15.09;76.24;101565.75;5304234;32;35433;-70
2022/10/29 05:26:29;;;;;;;;;;;;;;;15.37;74.63;101554.06;5283295;33;35511;-67
2022/10/29 05:29:31;;;;;;;;;;;;;;;15.35;73.76;101545.31;5318839;32;35180;-66
2022/10/29 05:32:32;;;;;;;;;;;;;;;15.50;72.73;101552.63;5304334;32;35116;-65
2022/10/29 05:35:39;;;;;;;;;;;;;;;15.41;73.10;101555.66;5316878;32;45242;-66
2022/10/29 05:38:41;;;;;;;;;;;;;;;14.97;74.60;101554.78;5301790;33;35433;-66
2022/10/29 05:41:43;;;;;;;;;;;;;;;14.46;77.21;101548.75;5316800;32;34906;-70
2022/10/29 05:44:44;;;;;;;;;;;;;;;14.51;78.53;101557.38;5307136;33;34606;-70
2022/10/29 05:47:46;;;;;;;;;;;;;;;14.82;74.66;101567.69;5303092;32;35132;-66
2022/10/29 05:50:48;;;;;;;;;;;;;;;14.69;75.86;101568.22;5319645;32;35064;-65
2022/10/29 05:53:50;;;;;;;;;;;;;;;13.85;79.44;101569.41;5304226;33;34238;-69
2022/10/29 05:56:52;;;;;;;;;;;;;;;13.40;83.04;101575.28;5319005;33;35534;-70
2022/10/29 05:59:54;;;;;;;;;;;;;;;13.83;81.79;101565.94;5305449;32;35006;-70
2022/10/29 06:02:57;;;;;;;;;;;;;;;13.75;81.50;101554.75;5314983;32;35106;-65
2022/10/29 06:05:59;;;;;;;;;;;;;;;13.85;81.44;101552.66;5306923;33;35348;-70
2022/10/29 06:09:01;;;;;;;;;;;;;;;14.96;76.40;101548.63;5303023;33;35097;-66
2022/10/29 06:12:03;;;;;;;;;;;;;;;14.51;76.41;101545.94;5318057;33;34093;-66
2022/10/29 06:15:05;;;;;;;;;;;;;;;14.62;77.77;101536.69;5303708;32;35347;-66
2022/10/29 06:18:07;;;;;;;;;;;;;;;14.48;80.01;101546.91;5316638;33;36815;-70
2022/10/29 06:21:09;;;;;;;;;;;;;;;15.13;76.86;101553.25;5303047;33;44668;-66
2022/10/29 06:24:12;;;;;;;;;;;;;;;15.37;75.10;101557.56;5313546;32;34657;-69
2022/10/29 06:27:14;;;;;;;;;;;;;;;15.58;73.13;101563.78;5286438;33;34877;-66
2022/10/29 06:30:16;;;;;;;;;;;;;;;15.44;73.14;101564.34;5301816;32;34641;-70
2022/10/29 06:33:18;;;;;;;;;;;;;;;15.12;74.79;101568.28;5317164;33;34456;-71
2022/10/29 06:36:19;;;;;;;;;;;;;;;14.35;78.83;101566.75;5287969;32;34974;-65
2022/10/29 06:39:21;;;;;;;;;;;;;;;14.05;80.28;101574.88;5312190;32;34977;-71
2022/10/29 06:42:23;;;;;;;;;;;;;;;14.79;77.61;101577.53;5301800;33;34399;-66
2022/10/29 06:45:25;;;;;;;;;;;;;;;15.07;75.78;101572.91;5312919;33;35048;-68
2022/10/29 06:48:27;;;;;;;;;;;;;;;14.71;75.30;101569.88;5307037;33;34857;-66
2022/10/29 06:51:29;;;;;;;;;;;;;;;15.46;72.75;101572.25;5305620;32;34197;-66
2022/10/29 06:54:30;;;;;;;;;;;;;;;15.54;71.73;101562.19;5320361;32;34278;-67
2022/10/29 06:57:32;;;;;;;;;;;;;;;14.62;75.91;101565.81;5306360;33;34920;-66
2022/10/29 07:00:34;;;;;;;;;;;;;;;15.23;72.98;101567.00;5320840;32;34477;-67
2022/10/29 07:03:36;;;;;;;;;;;;;;;14.29;77.31;101574.91;5307123;32;34092;-70
2022/10/29 07:06:38;;;;;;;;;;;;;;;14.21;77.22;101563.75;5314380;32;35869;-65
2022/10/29 07:09:41;;;;;;;;;;;;;;;14.70;77.45;101546.13;5311814;32;47288;-69
2022/10/29 07:12:43;;;;;;;;;;;;;;;14.21;78.12;101561.09;5304508;32;35112;-63
2022/10/29 07:15:45;;;;;;;;;;;;;;;14.49;79.19;101559.25;5321453;32;35329;-70
2022/10/29 07:18:47;;;;;;;;;;;;;;;15.89;72.27;101570.47;5305779;32;36136;-67
2022/10/29 07:21:49;;;;;;;;;;;;;;;15.37;71.59;101578.75;5330096;32;34733;-71
2022/10/29 07:24:51;;;;;;;;;;;;;;;15.14;72.25;101587.62;5296952;32;34938;-67
2022/10/29 07:28:07;;;;;;;;;;;;;;;15.23;71.95;101596.13;5298390;32;34430;-69
2022/10/29 07:31:09;;;;;;;;;;;;;;;14.82;72.60;101598.59;5315702;32;45242;-69
2022/10/29 07:34:10;;;;;;;;;;;;;;;15.27;71.69;101585.38;5302043;32;35353;-71
2022/10/29 07:37:12;;;;;;;;;;;;;;;15.52;69.72;101597.59;5316052;32;34990;-67
2022/10/29 07:40:14;;;;;;;;;;;;;;;15.80;68.55;101600.91;5307464;33;35081;-66
2022/10/29 07:43:16;;;;;;;;;;;;;;;15.47;70.27;101587.22;5318477;32;34942;-71
2022/10/29 07:46:18;;;;;;;;;;;;;;;14.97;71.09;101592.72;5316897;32;34802;-67
2022/10/29 07:49:20;;;;;;;;;;;;;;;14.99;73.73;101585.56;5307742;32;34824;-67
2022/10/29 07:52:22;;;;;;;;;;;;;;;15.16;71.85;101577.84;5316072;32;36149;-70
2022/10/29 07:55:23;;;;;;;;;;;;;;;14.76;73.72;101583.81;5308988;32;34815;-71
2022/10/29 07:58:25;;;;;;;;;;;;;;;15.00;71.80;101587.28;5316996;32;35070;-71
2022/10/29 08:01:27;;;;;;;;;;;;;;;14.36;75.46;101579.06;5305502;32;34256;-68
2022/10/29 08:04:29;;;;;;;;;;;;;;;15.02;74.31;101572.22;5318764;32;34448;-71
2022/10/29 08:07:31;;;;;;;;;;;;;;;15.06;72.48;101573.81;5304912;32;35564;-66
2022/10/29 08:10:33;;;;;;;;;;;;;;;14.73;74.42;101583.91;5307905;32;34255;-66
2022/10/29 08:13:35;;;;;;;;;;;;;;;14.73;74.93;101577.75;5316648;32;34423;-72
2022/10/29 08:16:37;;;;;;;;;;;;;;;14.74;74.90;101590.06;5306367;32;34345;-66
2022/10/29 08:19:39;;;;;;;;;;;;;;;14.61;75.52;101584.34;5316965;32;45511;-66
2022/10/29 08:22:41;;;;;;;;;;;;;;;14.19;78.46;101579.66;5306692;32;34728;-73
2022/10/29 08:25:42;;;;;;;;;;;;;;;14.40;77.36;101577.19;5301353;32;35892;-71
2022/10/29 08:28:44;;;;;;;;;;;;;;;14.56;76.05;101583.69;5299439;32;37573;-73
2022/10/29 08:31:46;;;;;;;;;;;;;;;14.47;77.13;101589.28;5307511;32;34542;-72
2022/10/29 08:34:48;;;;;;;;;;;;;;;14.84;75.33;101594.09;5316119;32;35354;-65
2022/10/29 08:37:50;;;;;;;;;;;;;;;14.17;77.46;101596.50;5301976;32;34883;-67
2022/10/29 08:41:11;;;;;;;;;;;;;;;14.68;76.88;101590.28;5320589;32;34741;-67
2022/10/29 08:44:32;;;;;;;;;;;;;;;15.00;73.62;101587.28;5305246;32;44705;-64
2022/10/29 08:47:42;;;;;;;;;;;;;;;14.70;74.56;101588.47;5309782;32;34075;-72
2022/10/29 08:50:46;;;;;;;;;;;;;;;14.32;76.78;101575.66;5318373;32;45011;-72
2022/10/29 08:53:49;;;;;;;;;;;;;;;14.68;76.41;101569.09;5303727;32;34395;-68
2022/10/29 08:57:14;;;;;;;;;;;;;;;14.99;73.48;101569.69;5304995;32;44825;-62
2022/10/29 09:00:25;;;;;;;;;;;;;;;14.92;74.66;101584.06;5305676;32;34621;-69
2022/10/29 09:03:28;;;;;;;;;;;;;;;15.41;71.74;101572.44;5309566;33;34807;-72
2022/10/29 09:06:30;;;;;;;;;;;;;;;15.10;71.13;101578.06;5315518;32;34819;-68
2022/10/29 09:09:51;;;;;;;;;;;;;;;14.62;73.81;101576.37;5305304;32;34374;-68
2022/10/29 09:12:56;;;;;;;;;;;;;;;14.89;73.35;101578.91;5317895;32;35401;-69
2022/10/29 09:16:20;;;;;;;;;;;;;;;13.96;76.64;101569.88;5307648;32;34257;-68
2022/10/29 09:19:22;;;;;;;;;;;;;;;15.10;72.73;101564.84;5308503;33;34822;-72
2022/10/29 09:22:27;;;;;;;;;;;;;;;14.14;76.81;101572.81;5313848;32;35544;-69
2022/10/29 09:25:29;;;;;;;;;;;;;;;15.24;71.90;101572.22;5292270;32;34146;-71
2022/10/29 09:28:53;;;;;;;;;;;;;;;14.81;73.67;101573.03;5309701;32;34560;-71
2022/10/29 09:32:02;;;;;;;;;;;;;;;15.05;72.98;101566.78;5315152;32;35369;-68
2022/10/29 09:35:13;;;;;;;;;;;;;;;14.51;75.47;101569.75;5310426;33;35354;-76
2022/10/29 09:38:16;;;;;;;;;;;;;;;15.21;73.15;101574.16;5305800;33;44583;-74
2022/10/29 09:41:18;;;;;;;;;;;;;;;15.75;69.15;101567.56;5307301;32;34589;-66
2022/10/29 09:44:22;;;;;;;;;;;;;;;14.62;73.68;101573.75;5318111;32;35069;-71
2022/10/29 09:47:24;;;;;;;;;;;;;;;15.70;69.05;101560.66;5303731;33;34739;-73
2022/10/29 09:50:32;;;;;;;;;;;;;;;14.75;73.30;101554.72;5318855;32;34530;-71
2022/10/29 09:53:34;;;;;;;;;;;;;;;15.72;68.40;101551.81;5304916;33;34619;-74
2022/10/29 09:56:38;;;;;;;;;;;;;;;15.29;70.37;101551.72;5316096;32;35543;-63
2022/10/29 09:59:41;;;;;;;;;;;;;;;14.78;72.62;101558.13;5318097;33;45200;-75
2022/10/29 10:02:53;;;;;;;;;;;;;;;14.46;74.79;101546.09;5303380;32;34731;-65
2022/10/29 10:06:03;;;;;;;;;;;;;;;15.33;71.50;101558.63;5316192;33;34969;-65
2022/10/29 10:09:05;;;;;;;;;;;;;;;15.31;71.80;101549.88;5303889;32;34889;-65
2022/10/29 10:12:07;;;;;;;;;;;;;;;15.30;72.27;101549.94;5310259;33;34920;-64
2022/10/29 10:15:14;;;;;;;;;;;;;;;15.25;71.03;101536.00;5309477;32;37455;-64
2022/10/29 10:18:17;;;;;;;;;;;;;;;15.21;70.41;101543.22;5303198;33;35072;-74
2022/10/29 10:21:26;;;;;;;;;;;;;;;16.35;65.50;101545.47;5318251;32;35110;-72
2022/10/29 10:24:30;;;;;;;;;;;;;;;15.98;66.61;101538.28;5303907;32;34361;-70
2022/10/29 10:27:31;;;;;;;;;;;;;;;14.84;71.83;101528.78;5299642;32;34633;-64
2022/10/29 10:30:33;;;;;;;;;;;;;;;15.06;71.31;101525.28;5307111;32;35703;-64
2022/10/29 10:33:36;;;;;;;;;;;;;;;16.14;66.60;101531.38;5307088;32;33708;-74
2022/10/29 10:36:38;;;;;;;;;;;;;;;15.16;71.24;101527.53;5314770;32;35546;-65
2022/10/29 10:39:41;;;;;;;;;;;;;;;16.17;67.52;101523.28;5304660;32;46279;-64
2022/10/29 10:42:45;;;;;;;;;;;;;;;16.51;64.71;101527.94;5315993;32;35548;-64
2022/10/29 10:45:57;;;;;;;;;;;;;;;16.03;66.58;101527.47;5304807;32;35132;-74
2022/10/29 10:49:06;;;;;;;;;;;;;;;16.45;65.10;101522.03;5317466;32;34601;-64
2022/10/29 10:52:15;;;;;;;;;;;;;;;16.50;64.54;101517.41;5304424;32;34686;-64
2022/10/29 10:55:23;;;;;;;;;;;;;;;15.45;69.17;101510.44;5303705;32;44534;-74
2022/10/29 10:58:35;;;;;;;;;;;;;;;16.35;65.73;101507.47;5317877;32;34482;-64
2022/10/29 11:01:39;;;;;;;;;;;;;;;16.17;65.89;101501.22;5317276;32;36808;-64
2022/10/29 11:04:41;;;;;;;;;;;;;;;14.97;71.32;101497.41;5317696;32;47230;-65
2022/10/29 11:08:00;;;;;;;;;;;;;;;16.03;67.63;101500.94;5303473;32;35865;-65
2022/10/29 11:11:21;;;;;;;;;;;;;;;16.06;66.97;101500.81;5304452;32;35475;-64
2022/10/29 11:14:22;;;;;;;;;;;;;;;16.08;68.04;101496.31;5318917;33;34931;-65
2022/10/29 11:17:25;;;;;;;;;;;;;;;15.44;71.61;101489.31;5304357;32;35144;-74
2022/10/29 11:20:28;;;;;;;;;;;;;;;16.34;67.81;101493.34;5319769;32;36015;-74
2022/10/29 11:23:32;;;;;;;;;;;;;;;16.72;64.88;101480.13;5301477;32;35383;-74
2022/10/29 11:26:36;;;;;;;;;;;;;;;16.07;67.09;101486.62;5286854;32;34749;-64
2022/10/29 11:29:41;;;;;;;;;;;;;;;15.33;70.90;101491.56;5315831;32;35001;-65
2022/10/29 11:32:49;;;;;;;;;;;;;;;15.44;70.94;101489.31;5305791;32;35171;-74
2022/10/29 11:36:02;;;;;;;;;;;;;;;15.17;71.84;101491.31;5317707;32;34880;-63
2022/10/29 11:39:07;;;;;;;;;;;;;;;15.31;71.74;101485.44;5297874;33;34313;-65
2022/10/29 11:42:09;;;;;;;;;;;;;;;15.37;71.78;101474.59;5315950;32;43305;-75
2022/10/29 11:45:12;;;;;;;;;;;;;;;15.49;71.19;101471.44;5307221;32;35399;-74
2022/10/29 11:48:21;;;;;;;;;;;;;;;15.82;68.75;101470.94;5312997;32;34975;-65
2022/10/29 11:51:22;;;;;;;;;;;;;;;15.74;69.24;101459.81;5329868;32;35409;-71
2022/10/29 11:54:43;;;;;;;;;;;;;;;15.98;68.38;101466.69;5306198;32;35493;-71
2022/10/29 11:57:48;;;;;;;;;;;;;;;16.24;66.85;101462.88;5312001;32;44907;-74
2022/10/29 12:00:59;;;;;;;;;;;;;;;15.73;68.15;101466.06;5305225;32;35234;-73
2022/10/29 12:04:00;;;;;;;;;;;;;;;15.66;68.50;101460.16;5303379;32;34694;-75
2022/10/29 12:07:21;;;;;;;;;;;;;;;15.61;68.55;101462.09;5317427;32;35688;-74
2022/10/29 12:10:36;;;;;;;;;;;;;;;15.28;69.62;101459.09;5291606;32;35450;-64
2022/10/29 12:13:41;;;;;;;;;;;;;;;14.77;72.74;101457.63;5317837;32;35940;-73
2022/10/29 12:17:01;;;;;;;;;;;;;;;15.50;70.75;101449.31;5302872;32;45578;-65
2022/10/29 12:20:12;;;;;;;;;;;;;;;15.88;69.50;101452.12;5306970;32;34624;-74
2022/10/29 12:23:24;;;;;;;;;;;;;;;16.73;64.85;101434.06;5314680;32;44457;-74
2022/10/29 12:26:26;;;;;;;;;;;;;;;16.52;65.40;101431.47;5284529;33;34626;-65
2022/10/29 12:29:42;;;;;;;;;;;;;;;15.48;69.01;101434.41;5320319;32;35153;-71
2022/10/29 12:32:56;;;;;;;;;;;;;;;16.29;66.73;101426.37;5302187;32;44530;-73
2022/10/29 12:35:58;;;;;;;;;;;;;;;16.53;64.71;101416.41;5300695;32;34339;-63
2022/10/29 12:39:00;;;;;;;;;;;;;;;15.53;68.83;101414.75;5316071;32;35295;-64
2022/10/29 12:42:04;;;;;;;;;;;;;;;15.59;69.43;101417.13;5302679;32;34292;-64
2022/10/29 12:45:16;;;;;;;;;;;;;;;15.73;68.46;101407.75;5318828;32;35342;-73
2022/10/29 12:48:37;;;;;;;;;;;;;;;15.65;68.85;101403.66;5301007;32;45624;-73
2022/10/29 12:51:39;;;;;;;;;;;;;;;15.41;70.00;101409.97;5305683;32;47442;-74
2022/10/29 12:54:42;;;;;;;;;;;;;;;15.02;72.27;101402.78;5319276;32;34904;-73
2022/10/29 12:57:44;;;;;;;;;;;;;;;15.65;69.82;101400.13;5305146;32;35007;-74
2022/10/29 13:00:49;;;;;;;;;;;;;;;16.42;66.35;101392.16;5317100;33;34514;-64
2022/10/29 13:03:53;;;;;;;;;;;;;;;16.46;66.03;101394.59;5302464;32;34832;-73
2022/10/29 13:06:59;;;;;;;;;;;;;;;16.14;66.36;101396.13;5318837;32;34893;-73
2022/10/29 13:10:19;;;;;;;;;;;;;;;15.59;68.46;101397.72;5309179;32;35562;-63
2022/10/29 13:13:37;;;;;;;;;;;;;;;16.08;67.01;101399.03;5305246;32;34992;-66
2022/10/29 13:16:39;;;;;;;;;;;;;;;16.15;66.70;101389.87;5329384;32;43481;-64
2022/10/29 13:19:43;;;;;;;;;;;;;;;16.15;66.69;101378.41;5303554;32;34347;-63
2022/10/29 13:22:52;;;;;;;;;;;;;;;16.04;67.59;101408.09;5315134;32;34732;-74
2022/10/29 13:25:54;;;;;;;;;;;;;;;15.42;69.43;101395.78;5288977;32;35443;-64
2022/10/29 13:28:56;;;;;;;;;;;;;;;16.10;67.68;101410.47;5299235;33;34972;-74
2022/10/29 13:31:58;;;;;;;;;;;;;;;15.99;67.34;101402.13;5318289;32;35383;-64
2022/10/29 13:35:17;;;;;;;;;;;;;;;15.48;69.45;101390.22;5301286;33;35343;-65
2022/10/29 13:38:38;;;;;;;;;;;;;;;15.29;71.43;101392.81;5312772;32;34983;-64
2022/10/29 13:41:59;;;;;;;;;;;;;;;14.84;72.60;101390.31;5311747;33;34942;-72
2022/10/29 13:45:00;;;;;;;;;;;;;;;15.58;71.37;101394.19;5302741;33;35393;-74
2022/10/29 13:48:04;;;;;;;;;;;;;;;16.19;67.62;101383.50;5315788;32;34359;-64
2022/10/29 13:51:06;;;;;;;;;;;;;;;15.60;69.04;101392.34;5302108;32;35326;-74
2022/10/29 13:54:16;;;;;;;;;;;;;;;15.08;71.76;101391.94;5319123;32;35609;-74
2022/10/29 13:57:18;;;;;;;;;;;;;;;14.96;72.67;101392.44;5286638;33;44844;-64
2022/10/29 14:00:19;;;;;;;;;;;;;;;15.05;72.50;101385.91;5281222;33;873349;-64
2022/10/29 14:03:27;;;;;;;;;;;;;;;15.31;71.79;101387.44;5314074;33;35020;-73
2022/10/29 14:06:33;;;;;;;;;;;;;;;14.42;75.23;101384.91;5305849;32;34257;-74
2022/10/29 14:09:36;;;;;;;;;;;;;;;15.78;69.57;101374.81;5317770;33;34886;-75
2022/10/29 14:12:38;;;;;;;;;;;;;;;15.54;69.95;101376.72;5300363;33;35266;-65
2022/10/29 14:15:59;;;;;;;;;;;;;;;16.14;67.81;101363.44;5317419;33;45379;-74
2022/10/29 14:19:14;;;;;;;;;;;;;;;15.99;67.93;101365.00;5311310;33;35329;-72
2022/10/29 14:22:29;;;;;;;;;;;;;;;15.55;69.72;101375.78;5301718;33;45203;-74
2022/10/29 14:25:32;;;;;;;;;;;;;;;15.29;71.01;101384.00;5302217;33;34520;-75
2022/10/29 14:28:34;;;;;;;;;;;;;;;15.18;72.50;101380.00;5293938;33;34412;-66
2022/10/29 14:31:36;;;;;;;;;;;;;;;15.33;71.72;101375.87;5317609;33;35258;-65
2022/10/29 14:34:39;;;;;;;;;;;;;;;15.79;69.61;101381.81;5304103;32;35771;-72
2022/10/29 14:37:41;;;;;;;;;;;;;;;16.14;68.29;101371.38;5298644;32;45047;-75
2022/10/29 14:40:43;;;;;;;;;;;;;;;16.16;68.22;101375.69;5316338;32;34949;-74
2022/10/29 14:43:49;;;;;;;;;;;;;;;16.16;67.19;101378.31;5301589;33;35641;-64
2022/10/29 14:46:56;;;;;;;;;;;;;;;15.48;70.21;101371.69;5318062;33;34891;-74
2022/10/29 14:50:01;;;;;;;;;;;;;;;15.28;71.31;101369.06;5302012;33;34280;-71
2022/10/29 14:53:06;;;;;;;;;;;;;;;15.38;71.61;101373.88;5311638;32;33727;-64
2022/10/29 14:56:09;;;;;;;;;;;;;;;15.65;70.31;101378.94;5308387;32;35430;-64
2022/10/29 14:59:17;;;;;;;;;;;;;;;15.77;69.61;101375.72;5303662;33;45242;-64
2022/10/29 15:02:19;;;;;;;;;;;;;;;15.60;69.99;101376.44;5314488;33;34959;-64
2022/10/29 15:05:42;;;;;;;;;;;;;;;15.52;71.01;101380.34;5296974;33;48294;-73
2022/10/29 15:08:44;;;;;;;;;;;;;;;15.44;70.84;101373.59;5317534;32;35224;-72
2022/10/29 15:11:48;;;;;;;;;;;;;;;15.39;71.29;101372.06;5305315;32;34895;-75
2022/10/29 15:14:50;;;;;;;;;;;;;;;15.25;71.97;101370.03;5304641;32;34903;-67
2022/10/29 15:17:59;;;;;;;;;;;;;;;14.92;73.73;101367.03;5317638;32;34747;-63
2022/10/29 15:21:01;;;;;;;;;;;;;;;15.68;70.38;101361.09;5304430;32;34203;-68
2022/10/29 15:24:05;;;;;;;;;;;;;;;15.76;69.88;101346.63;5318903;32;34272;-65
2022/10/29 15:27:08;;;;;;;;;;;;;;;15.60;70.07;101349.94;5280281;32;35594;-73
2022/10/29 15:30:17;;;;;;;;;;;;;;;15.43;71.55;101347.19;5313765;32;44539;-65
2022/10/29 15:33:29;;;;;;;;;;;;;;;14.81;74.11;101340.12;5309758;32;35440;-72
2022/10/29 15:36:43;;;;;;;;;;;;;;;15.32;71.62;101347.62;5301086;33;34338;-65
2022/10/29 15:39:54;;;;;;;;;;;;;;;15.32;71.87;101352.06;5317241;32;44455;-74
2022/10/29 15:42:56;;;;;;;;;;;;;;;15.34;72.17;101348.47;5303006;32;34918;-72
2022/10/29 15:46:03;;;;;;;;;;;;;;;14.77;74.55;101347.34;5316277;32;35014;-74
2022/10/29 15:49:06;;;;;;;;;;;;;;;15.44;72.39;101357.69;5311743;32;34297;-74